createdAt,value
2017-03-19T00:02:03.692Z,64.1
2017-03-19T00:07:03.737Z,64.1
2017-03-19T00:12:03.588Z,64.1
2017-03-19T00:17:03.850Z,64.1
2017-03-19T00:22:03.441Z,64.0
2017-03-19T00:27:03.063Z,64.1
2017-03-19T00:32:03.583Z,64.1
2017-03-19T00:37:03.212Z,64.1
2017-03-19T00:42:03.401Z,64.1
2017-03-19T00:47:04.152Z,64.2
2017-03-19T00:52:03.597Z,64.2
2017-03-19T00:57:03.739Z,64.1
2017-03-19T01:02:03.218Z,64.2
2017-03-19T01:07:03.359Z,64.3
2017-03-19T01:12:03.309Z,64.1
2017-03-19T01:17:03.732Z,64.2
2017-03-19T01:22:03.141Z,64.2
2017-03-19T01:27:03.655Z,64.2
2017-03-19T01:32:03.302Z,64.2
2017-03-19T01:37:03.140Z,64.2
2017-03-19T01:42:03.706Z,64.2
2017-03-19T01:47:03.127Z,64.3
2017-03-19T01:52:03.517Z,64.3
2017-03-19T01:57:03.056Z,64.2
2017-03-19T02:02:03.523Z,64.5
2017-03-19T02:07:03.012Z,64.6
2017-03-19T02:12:03.507Z,64.5
2017-03-19T02:17:03.147Z,64.4
2017-03-19T02:22:03.620Z,64.4
2017-03-19T02:27:03.092Z,64.6
2017-03-19T02:32:03.605Z,64.4
2017-03-19T02:37:03.006Z,64.3
2017-03-19T02:42:03.608Z,64.4
2017-03-19T02:47:03.153Z,64.4
2017-03-19T02:52:03.413Z,64.4
2017-03-19T02:57:03.737Z,64.6
2017-03-19T03:02:03.191Z,64.6
2017-03-19T03:07:03.500Z,64.8
2017-03-19T03:12:03.085Z,64.6
2017-03-19T03:17:03.926Z,64.6
2017-03-19T03:22:03.650Z,64.5
2017-03-19T03:27:03.958Z,64.5
2017-03-19T03:32:03.514Z,64.5
2017-03-19T03:37:03.747Z,64.4
2017-03-19T03:42:03.865Z,64.4
2017-03-19T03:47:03.829Z,64.4
2017-03-19T03:52:03.049Z,64.4
2017-03-19T03:57:03.454Z,64.4
2017-03-19T04:02:03.517Z,64.5
2017-03-19T04:07:03.818Z,64.1
2017-03-19T04:12:03.161Z,64.4
2017-03-19T04:17:03.504Z,64.4
2017-03-19T04:22:03.816Z,64.3
2017-03-19T04:27:03.253Z,64.3
2017-03-19T04:32:03.659Z,64.5
2017-03-19T04:37:03.149Z,64.3
2017-03-19T04:42:03.501Z,64.4
2017-03-19T04:47:03.907Z,64.4
2017-03-19T04:52:03.412Z,64.4
2017-03-19T04:57:03.699Z,64.4
2017-03-19T05:02:03.618Z,64.4
2017-03-19T05:07:03.602Z,64.4
2017-03-19T05:12:03.566Z,64.3
2017-03-19T05:17:28.936Z,64.4
2017-03-19T05:22:03.092Z,64.4
2017-03-19T05:27:03.652Z,64.5
2017-03-19T05:32:30.326Z,64.5
2017-03-19T05:37:03.694Z,64.5
2017-03-19T05:42:03.662Z,64.5
2017-03-19T05:47:25.181Z,64.5
2017-03-19T05:52:03.313Z,64.7
2017-03-19T05:57:03.334Z,64.6
2017-03-19T06:02:23.493Z,64.5
2017-03-19T06:07:03.820Z,64.5
2017-03-19T06:12:03.212Z,64.6
2017-03-19T06:17:27.573Z,64.6
2017-03-19T06:22:03.708Z,64.6
2017-03-19T06:27:03.108Z,64.6
2017-03-19T06:32:26.860Z,64.7
2017-03-19T06:37:03.445Z,64.8
2017-03-19T06:42:03.106Z,64.7
2017-03-19T06:47:23.444Z,64.6
2017-03-19T06:52:03.189Z,64.5
2017-03-19T06:57:03.106Z,64.5
2017-03-19T07:02:27.397Z,64.7
2017-03-19T07:07:03.576Z,64.6
2017-03-19T07:12:03.704Z,64.5
2017-03-19T07:17:24.501Z,64.4
2017-03-19T07:22:03.882Z,64.1
2017-03-19T07:27:03.783Z,63.8
2017-03-19T07:32:25.731Z,63.9
2017-03-19T07:37:03.544Z,64.2
2017-03-19T07:42:03.150Z,64.3
2017-03-19T07:47:24.181Z,64.5
2017-03-19T07:52:03.617Z,64.3
2017-03-19T07:57:03.046Z,63.9
2017-03-19T08:02:23.542Z,63.4
2017-03-19T08:07:03.350Z,63.2
2017-03-19T08:12:03.411Z,63.4
2017-03-19T08:17:26.833Z,63.9
2017-03-19T08:22:03.929Z,64.0
2017-03-19T08:27:03.723Z,63.9
2017-03-19T08:32:28.232Z,63.5
2017-03-19T08:37:03.084Z,63.5
2017-03-19T08:42:03.408Z,63.7
2017-03-19T08:47:24.197Z,64.6
2017-03-19T08:52:03.049Z,64.5
2017-03-19T08:57:03.220Z,64.8
2017-03-19T09:02:27.805Z,64.3
2017-03-19T09:07:02.955Z,64.1
2017-03-19T09:12:03.378Z,63.9
2017-03-19T09:17:19.596Z,63.3
2017-03-19T09:22:03.110Z,63.0
2017-03-19T09:27:03.219Z,62.3
2017-03-19T09:32:23.883Z,61.9
2017-03-19T09:37:03.645Z,61.6
2017-03-19T09:42:03.184Z,61.4
2017-03-19T09:47:23.771Z,60.9
2017-03-19T09:52:03.099Z,60.9
2017-03-19T09:57:03.449Z,61.6
2017-03-19T10:02:29.765Z,62.5
2017-03-19T10:07:03.231Z,62.4
2017-03-19T10:12:03.489Z,62.7
2017-03-19T10:17:23.253Z,62.4
2017-03-19T10:22:03.934Z,61.3
2017-03-19T10:27:03.766Z,61.1
2017-03-19T10:32:28.282Z,63.0
2017-03-19T10:37:03.509Z,63.0
2017-03-19T10:42:03.082Z,63.3
2017-03-19T10:47:26.174Z,63.0
2017-03-19T10:52:03.757Z,63.4
2017-03-19T10:57:03.475Z,63.6
2017-03-19T11:02:17.145Z,63.6
2017-03-19T11:07:02.985Z,63.2
2017-03-19T11:12:03.311Z,63.3
2017-03-19T11:17:24.807Z,62.4
2017-03-19T11:22:03.101Z,62.4
2017-03-19T11:27:03.483Z,62.4
2017-03-19T11:32:23.631Z,62.3
2017-03-19T11:37:03.660Z,62.3
2017-03-19T11:42:03.140Z,62.2
2017-03-19T11:47:23.556Z,62.1
2017-03-19T11:52:03.763Z,62.1
2017-03-19T11:57:03.802Z,62.4
2017-03-19T12:02:23.357Z,62.6
2017-03-19T12:07:03.849Z,62.7
2017-03-19T12:12:03.100Z,62.5
2017-03-19T12:17:23.942Z,62.8
2017-03-19T12:22:03.164Z,62.8
2017-03-19T12:27:03.375Z,63.0
2017-03-19T12:32:25.930Z,63.0
2017-03-19T12:37:03.260Z,63.1
2017-03-19T12:42:03.387Z,63.1
2017-03-19T12:47:26.658Z,63.0
2017-03-19T12:52:03.855Z,63.2
2017-03-19T12:57:03.451Z,63.2
2017-03-19T13:02:24.978Z,62.9
2017-03-19T13:07:03.234Z,62.6
2017-03-19T13:12:03.569Z,62.6
2017-03-19T13:17:22.090Z,62.4
2017-03-19T13:22:03.621Z,62.3
2017-03-19T13:27:03.381Z,62.5
2017-03-19T13:32:27.634Z,62.4
2017-03-19T13:37:03.166Z,62.4
2017-03-19T13:42:03.262Z,62.6
2017-03-19T13:47:22.763Z,62.8
2017-03-19T13:52:03.849Z,62.8
2017-03-19T13:57:03.586Z,62.9
2017-03-19T14:02:20.531Z,62.7
2017-03-19T14:07:04.008Z,62.6
2017-03-19T14:12:03.023Z,63.0
2017-03-19T14:17:10.217Z,63.0
2017-03-19T14:22:03.532Z,63.0
2017-03-19T14:27:03.567Z,63.2
2017-03-19T14:32:27.044Z,63.1
2017-03-19T14:37:03.649Z,63.1
2017-03-19T14:42:03.621Z,63.0
2017-03-19T14:47:24.356Z,62.8
2017-03-19T14:52:03.680Z,63.2
2017-03-19T14:57:03.078Z,63.1
2017-03-19T15:02:21.790Z,63.5
2017-03-19T15:07:03.197Z,63.5
2017-03-19T15:12:03.811Z,63.6
2017-03-19T15:17:23.806Z,63.6
2017-03-19T15:22:03.318Z,63.5
2017-03-19T15:27:03.130Z,63.5
2017-03-19T15:32:26.111Z,63.6
2017-03-19T15:37:04.047Z,63.7
2017-03-19T15:42:04.910Z,63.8
2017-03-19T15:47:22.594Z,63.9
2017-03-19T15:52:03.248Z,63.9
2017-03-19T15:57:03.183Z,63.4
2017-03-19T16:02:23.388Z,63.7
2017-03-19T16:07:05.063Z,63.9
2017-03-19T16:12:03.938Z,63.9
2017-03-19T16:17:23.945Z,64.6
2017-03-19T16:22:03.235Z,64.5
2017-03-19T16:27:03.478Z,64.9
2017-03-19T16:32:28.776Z,65.0
2017-03-19T16:37:03.749Z,65.1
2017-03-19T16:42:03.153Z,65.7
2017-03-19T16:47:25.188Z,65.6
2017-03-19T16:52:03.762Z,65.6
2017-03-19T16:57:03.020Z,65.6
2017-03-19T17:02:26.652Z,65.8
2017-03-19T17:07:03.679Z,65.8
2017-03-19T17:12:03.099Z,66.0
2017-03-19T17:17:23.405Z,66.0
2017-03-19T17:22:03.100Z,66.1
2017-03-19T17:27:04.016Z,66.0
2017-03-19T17:32:26.113Z,66.1
2017-03-19T17:37:03.674Z,66.1
2017-03-19T17:42:03.026Z,66.1
2017-03-19T17:47:23.936Z,66.2
2017-03-19T17:52:03.336Z,66.1
2017-03-19T17:57:03.506Z,66.3
2017-03-19T18:02:17.219Z,66.3
2017-03-19T18:07:03.650Z,66.2
2017-03-19T18:12:03.107Z,66.4
2017-03-19T18:17:06.766Z,66.4
2017-03-19T18:22:03.629Z,66.3
2017-03-19T18:27:03.367Z,66.3
2017-03-19T18:32:03.982Z,66.2
2017-03-19T18:37:03.744Z,66.2
2017-03-19T18:42:03.211Z,66.3
2017-03-19T18:47:03.482Z,66.3
2017-03-19T18:52:03.646Z,66.2
2017-03-19T18:57:03.545Z,66.1
2017-03-19T19:02:03.499Z,66.0
2017-03-19T19:07:03.301Z,66.0
2017-03-19T19:12:03.049Z,66.0
2017-03-19T19:17:04.014Z,65.9
2017-03-19T19:22:03.317Z,66.0
2017-03-19T19:27:03.162Z,66.0
2017-03-19T19:32:03.230Z,65.9
2017-03-19T19:37:03.581Z,65.9
2017-03-19T19:42:03.313Z,65.9
2017-03-19T19:47:04.172Z,65.9
2017-03-19T19:52:03.572Z,65.9
2017-03-19T19:57:03.478Z,65.9
2017-03-19T20:02:03.189Z,66.0
2017-03-19T20:07:03.438Z,66.0
2017-03-19T20:12:03.962Z,65.8
2017-03-19T20:17:03.903Z,65.9
2017-03-19T20:22:03.110Z,65.9
2017-03-19T20:27:03.374Z,65.9
2017-03-19T20:32:03.131Z,65.8
2017-03-19T20:37:03.676Z,65.8
2017-03-19T20:42:03.111Z,65.8
2017-03-19T20:47:03.431Z,65.8
2017-03-19T20:52:03.461Z,65.7
2017-03-19T20:57:03.447Z,65.8
2017-03-19T21:02:03.619Z,65.9
2017-03-19T21:07:03.828Z,65.8
2017-03-19T21:12:03.248Z,65.7
2017-03-19T21:17:03.873Z,65.8
2017-03-19T21:22:03.179Z,65.8
2017-03-19T21:27:03.196Z,65.8
2017-03-19T21:32:04.012Z,66.1
2017-03-19T21:37:03.089Z,66.1
2017-03-19T21:42:03.258Z,66.3
2017-03-19T21:47:03.659Z,66.3
2017-03-19T21:52:03.551Z,66.2
2017-03-19T21:57:03.458Z,66.1
2017-03-19T22:02:03.554Z,65.7
2017-03-19T22:07:03.610Z,65.7
2017-03-19T22:12:03.644Z,65.7
2017-03-19T22:17:03.707Z,65.7
2017-03-19T22:22:03.522Z,65.7
2017-03-19T22:27:03.613Z,65.8
2017-03-19T22:32:03.115Z,65.7
2017-03-19T22:37:03.913Z,65.7
2017-03-19T22:42:03.290Z,65.9
2017-03-19T22:47:03.644Z,65.9
2017-03-19T22:52:03.590Z,66.1
2017-03-19T22:57:03.605Z,66.0
2017-03-19T23:02:04.640Z,66.1
2017-03-19T23:07:03.646Z,66.2
2017-03-19T23:12:04.039Z,66.1
2017-03-19T23:22:03.793Z,65.9
2017-03-19T23:27:03.561Z,66.0
2017-03-19T23:32:03.140Z,66.0
2017-03-19T23:37:03.878Z,66.0
2017-03-19T23:42:03.381Z,66.0
2017-03-19T23:47:03.369Z,66.0
2017-03-19T23:52:03.373Z,66.0
2017-03-19T23:57:03.045Z,66.0
